<?xml version="1.0" encoding="UTF-8"?>
<gpx version="1.1" creator="2bulu-scraper" xmlns="http://www.topografix.com/GPX/1/1">
  <metadata><name>内江东兴区</name><desc>source: 2bulu.com trackId=86247379; exported 2026-09-01T17:58:16.680Z</desc>
    <bounds minlat="29.6006628" minlon="105.0379983" maxlat="29.6189121" maxlon="105.0538414"/>
    <link href="https://www.2bulu.com/track/t-alrJFy%252Fnbdrp%252FR2KBg5Tzw%253D%253D.htm"><text>2bulu 源页面</text></link>
  </metadata>
  <wpt lat="29.6189121" lon="105.0532792"><ele>282</ele><name>
        </name></wpt>
  <wpt lat="29.6189121" lon="105.0532792"><ele>282</ele><name>五星水库
        </name></wpt>
  <wpt lat="29.6186899" lon="105.0536818"><ele>282</ele><name>
        </name></wpt>
  <wpt lat="29.6187046" lon="105.0536049"><ele>282</ele><name>
        </name></wpt>
  <wpt lat="29.6187023" lon="105.0535498"><ele>282</ele><name>
        </name></wpt>
  <wpt lat="29.6186115" lon="105.0531447"><ele>277</ele><name>
        </name></wpt>
  <wpt lat="29.6186115" lon="105.0531447"><ele>277</ele><name>
        </name></wpt>
  <wpt lat="29.6186115" lon="105.0531447"><ele>277</ele><name>
        </name></wpt>
  <wpt lat="29.6188673" lon="105.0533327"><ele>284</ele><name>
        </name></wpt>
  <wpt lat="29.616661" lon="105.0522394"><ele>274</ele><name>
        </name></wpt>
  <wpt lat="29.616661" lon="105.0522394"><ele>274</ele><name>
        </name></wpt>
  <wpt lat="29.616661" lon="105.0522394"><ele>274</ele><name>五星水库旁边雨洪排口
        </name></wpt>
  <wpt lat="29.6164242" lon="105.0515365"><ele>276</ele><name>
        </name></wpt>
  <wpt lat="29.6161601" lon="105.0514256"><ele>277</ele><name>
        </name></wpt>
  <wpt lat="29.6150593" lon="105.0508407"><ele>270</ele><name>
        </name></wpt>
  <wpt lat="29.6150297" lon="105.0507377"><ele>271</ele><name>
        </name></wpt>
  <wpt lat="29.6150082" lon="105.0504529"><ele>271</ele><name>
        </name></wpt>
  <wpt lat="29.6149217" lon="105.0502631"><ele>275</ele><name>
        </name></wpt>
  <wpt lat="29.6149426" lon="105.050045"><ele>277</ele><name>
        </name></wpt>
  <wpt lat="29.6148216" lon="105.0490366"><ele>279</ele><name>
        </name></wpt>
  <wpt lat="29.6148216" lon="105.0490366"><ele>279</ele><name>谢家河湿地公园
        </name></wpt>
  <wpt lat="29.6143586" lon="105.0478483"><ele>280</ele><name>
        </name></wpt>
  <wpt lat="29.6143188" lon="105.0473951"><ele>276</ele><name>
        </name></wpt>
  <wpt lat="29.6140706" lon="105.0464642"><ele>272</ele><name>水厂旁边雨洪排口
        </name></wpt>
  <wpt lat="29.6131875" lon="105.045537"><ele>272</ele><name>
        </name></wpt>
  <wpt lat="29.6131875" lon="105.045537"><ele>272</ele><name>
        </name></wpt>
  <wpt lat="29.6130093" lon="105.0454868"><ele>276</ele><name>
        </name></wpt>
  <wpt lat="29.6129143" lon="105.045437"><ele>276</ele><name>
        </name></wpt>
  <wpt lat="29.6128448" lon="105.0452511"><ele>270</ele><name>
        </name></wpt>
  <wpt lat="29.6128448" lon="105.0452511"><ele>270</ele><name>
        </name></wpt>
  <wpt lat="29.6113797" lon="105.0451931"><ele>265</ele><name>
        </name></wpt>
  <wpt lat="29.6108007" lon="105.0448559"><ele>273</ele><name>
        </name></wpt>
  <wpt lat="29.6108007" lon="105.0448559"><ele>273</ele><name>
        </name></wpt>
  <wpt lat="29.6108007" lon="105.0448559"><ele>273</ele><name>
        </name></wpt>
  <wpt lat="29.6101082" lon="105.0445404"><ele>271</ele><name>
        </name></wpt>
  <wpt lat="29.6097915" lon="105.0443923"><ele>272</ele><name>
        </name></wpt>
  <wpt lat="29.6093915" lon="105.0439079"><ele>270</ele><name>
        </name></wpt>
  <wpt lat="29.6087909" lon="105.042559"><ele>269</ele><name>
        </name></wpt>
  <wpt lat="29.6085007" lon="105.0425258"><ele>273</ele><name>
        </name></wpt>
  <wpt lat="29.6078677" lon="105.0429068"><ele>267</ele><name>
        </name></wpt>
  <wpt lat="29.6077551" lon="105.0434168"><ele>282</ele><name>
        </name></wpt>
  <wpt lat="29.6034006" lon="105.042318"><ele>267</ele><name>
        </name></wpt>
  <wpt lat="29.603647" lon="105.043913"><ele>263</ele><name>
        </name></wpt>
  <wpt lat="29.603647" lon="105.043913"><ele>263</ele><name>
        </name></wpt>
  <wpt lat="29.6034527" lon="105.0439187"><ele>268</ele><name>
        </name></wpt>
  <wpt lat="29.6025191" lon="105.0416119"><ele>256</ele><name>
        </name></wpt>
  <wpt lat="29.6025191" lon="105.0416119"><ele>256</ele><name>
        </name></wpt>
  <wpt lat="29.6024462" lon="105.0414437"><ele>260</ele><name>
        </name></wpt>
  <wpt lat="29.6031242" lon="105.0396977"><ele>268</ele><name>
        </name></wpt>
  <wpt lat="29.6031394" lon="105.0394396"><ele>263</ele><name>
        </name></wpt>
  <wpt lat="29.6016579" lon="105.038047"><ele>271</ele><name>
        </name></wpt>
  <wpt lat="29.6016135" lon="105.0380281"><ele>272</ele><name>
        </name></wpt>
  <wpt lat="29.6011449" lon="105.0380161"><ele>272</ele><name>
        </name></wpt>
  <wpt lat="29.6011449" lon="105.0380161"><ele>272</ele><name>
        </name></wpt>
  <wpt lat="29.6009406" lon="105.0380127"><ele>269</ele><name>
        </name></wpt>
  <wpt lat="29.6008441" lon="105.0379983"><ele>270</ele><name>
        </name></wpt>
  <wpt lat="29.6008441" lon="105.0379983"><ele>270</ele><name>
        </name></wpt>
  <wpt lat="29.6008441" lon="105.0379983"><ele>270</ele><name>
        </name></wpt>
  <wpt lat="29.6006628" lon="105.0380443"><ele>270</ele><name>
        </name></wpt>
  <wpt lat="29.6006628" lon="105.0380443"><ele>270</ele><name>
        </name></wpt>
  <wpt lat="29.6006628" lon="105.0380443"><ele>270</ele><name>
        </name></wpt>
  <wpt lat="29.6006628" lon="105.0380443"><ele>270</ele><name>
        </name></wpt>
  <trk><name>内江东兴区</name>
      <trkseg>
        <trkpt lat="29.6189121" lon="105.0532792"><ele>282.23</ele><time>2026-06-19T17:22:15.000Z</time></trkpt>
        <trkpt lat="29.618831" lon="105.0533162"><ele>282.23</ele><time>2026-06-19T17:22:41.000Z</time></trkpt>
        <trkpt lat="29.6187311" lon="105.0533554"><ele>282.55</ele><time>2026-06-19T17:22:51.000Z</time></trkpt>
        <trkpt lat="29.6186622" lon="105.0534365"><ele>282.56</ele><time>2026-06-19T17:22:59.000Z</time></trkpt>
        <trkpt lat="29.6186547" lon="105.053544"><ele>282.39</ele><time>2026-06-19T17:23:07.000Z</time></trkpt>
        <trkpt lat="29.6186732" lon="105.0536583"><ele>282.18</ele><time>2026-06-19T17:23:17.000Z</time></trkpt>
        <trkpt lat="29.6186899" lon="105.0536818"><ele>282.22</ele><time>2026-06-19T17:23:19.000Z</time></trkpt>
        <trkpt lat="29.6187023" lon="105.0535498"><ele>282.29</ele><time>2026-06-19T17:25:44.000Z</time></trkpt>
        <trkpt lat="29.6186686" lon="105.0536503"><ele>282.18</ele><time>2026-06-19T17:26:10.000Z</time></trkpt>
        <trkpt lat="29.6186191" lon="105.0537444"><ele>282.4</ele><time>2026-06-19T17:30:56.000Z</time></trkpt>
        <trkpt lat="29.6185873" lon="105.0538414"><ele>281.96</ele><time>2026-06-19T17:31:10.000Z</time></trkpt>
        <trkpt lat="29.6186421" lon="105.0537502"><ele>281.31</ele><time>2026-06-19T17:42:10.000Z</time></trkpt>
        <trkpt lat="29.6186899" lon="105.0536604"><ele>280.75</ele><time>2026-06-19T17:42:24.000Z</time></trkpt>
        <trkpt lat="29.6187161" lon="105.0535523"><ele>280.77</ele><time>2026-06-19T17:42:38.000Z</time></trkpt>
        <trkpt lat="29.618699" lon="105.0534447"><ele>281.63</ele><time>2026-06-19T17:42:50.000Z</time></trkpt>
        <trkpt lat="29.6186511" lon="105.0533471"><ele>282.18</ele><time>2026-06-19T17:43:06.000Z</time></trkpt>
        <trkpt lat="29.6186082" lon="105.0532508"><ele>282.54</ele><time>2026-06-19T17:43:26.000Z</time></trkpt>
        <trkpt lat="29.6186115" lon="105.0531447"><ele>282.4</ele><time>2026-06-19T17:43:46.000Z</time></trkpt>
        <trkpt lat="29.6185944" lon="105.053251"><ele>279.89</ele><time>2026-06-19T17:46:06.000Z</time></trkpt>
        <trkpt lat="29.6186506" lon="105.053352"><ele>276.92</ele><time>2026-06-19T17:46:28.000Z</time></trkpt>
        <trkpt lat="29.6187359" lon="105.0533766"><ele>277.87</ele><time>2026-06-19T17:46:36.000Z</time></trkpt>
        <trkpt lat="29.6187936" lon="105.053418"><ele>278.61</ele><time>2026-06-19T17:46:44.000Z</time></trkpt>
        <trkpt lat="29.6188504" lon="105.0533568"><ele>278.29</ele><time>2026-06-19T17:47:04.000Z</time></trkpt>
        <trkpt lat="29.6188673" lon="105.0533327"><ele>280.69</ele><time>2026-06-19T17:47:06.000Z</time></trkpt>
        <trkpt lat="29.6187871" lon="105.0533476"><ele>282.18</ele><time>2026-06-19T17:47:52.000Z</time></trkpt>
        <trkpt lat="29.6186726" lon="105.0533494"><ele>283.21</ele><time>2026-06-19T17:48:02.000Z</time></trkpt>
        <trkpt lat="29.6185919" lon="105.0532773"><ele>283.66</ele><time>2026-06-19T17:48:12.000Z</time></trkpt>
        <trkpt lat="29.6185806" lon="105.0531692"><ele>283.52</ele><time>2026-06-19T17:48:24.000Z</time></trkpt>
        <trkpt lat="29.6185702" lon="105.0531152"><ele>282.16</ele><time>2026-06-19T17:48:30.000Z</time></trkpt>
        <trkpt lat="29.6185101" lon="105.0530475"><ele>279.04</ele><time>2026-06-19T17:49:14.000Z</time></trkpt>
        <trkpt lat="29.6184404" lon="105.0529623"><ele>260.89</ele><time>2026-06-19T17:49:24.000Z</time></trkpt>
        <trkpt lat="29.6184001" lon="105.0528555"><ele>249.42</ele><time>2026-06-19T17:49:36.000Z</time></trkpt>
        <trkpt lat="29.6183407" lon="105.0527607"><ele>246.97</ele><time>2026-06-19T17:50:16.000Z</time></trkpt>
        <trkpt lat="29.6182552" lon="105.0527458"><ele>255.66</ele><time>2026-06-19T17:50:30.000Z</time></trkpt>
        <trkpt lat="29.6182367" lon="105.0527431"><ele>263.46</ele><time>2026-06-19T17:50:34.000Z</time></trkpt>
        <trkpt lat="29.6181744" lon="105.0527158"><ele>267.92</ele><time>2026-06-19T17:50:58.000Z</time></trkpt>
        <trkpt lat="29.6180917" lon="105.0526728"><ele>272.52</ele><time>2026-06-19T17:51:18.000Z</time></trkpt>
        <trkpt lat="29.6180085" lon="105.0526203"><ele>275.84</ele><time>2026-06-19T17:51:38.000Z</time></trkpt>
        <trkpt lat="29.617933" lon="105.0525476"><ele>277.97</ele><time>2026-06-19T17:51:56.000Z</time></trkpt>
        <trkpt lat="29.6178516" lon="105.0524926"><ele>279.78</ele><time>2026-06-19T17:52:10.000Z</time></trkpt>
        <trkpt lat="29.6177575" lon="105.0524773"><ele>280.93</ele><time>2026-06-19T17:52:32.000Z</time></trkpt>
        <trkpt lat="29.617657" lon="105.0524683"><ele>282.05</ele><time>2026-06-19T17:52:46.000Z</time></trkpt>
        <trkpt lat="29.617565" lon="105.0524475"><ele>283.19</ele><time>2026-06-19T17:53:02.000Z</time></trkpt>
        <trkpt lat="29.6174735" lon="105.0524299"><ele>282.84</ele><time>2026-06-19T17:53:28.000Z</time></trkpt>
        <trkpt lat="29.6173832" lon="105.0524334"><ele>282.73</ele><time>2026-06-19T17:53:44.000Z</time></trkpt>
        <trkpt lat="29.6172906" lon="105.0524546"><ele>280.79</ele><time>2026-06-19T17:54:06.000Z</time></trkpt>
        <trkpt lat="29.6171991" lon="105.052474"><ele>280.03</ele><time>2026-06-19T17:54:18.000Z</time></trkpt>
        <trkpt lat="29.6171021" lon="105.0524954"><ele>280.17</ele><time>2026-06-19T17:54:32.000Z</time></trkpt>
        <trkpt lat="29.6170046" lon="105.0524827"><ele>279.69</ele><time>2026-06-19T17:54:46.000Z</time></trkpt>
        <trkpt lat="29.6169103" lon="105.0524335"><ele>280.41</ele><time>2026-06-19T17:54:58.000Z</time></trkpt>
        <trkpt lat="29.6168192" lon="105.0523717"><ele>280.31</ele><time>2026-06-19T17:55:10.000Z</time></trkpt>
        <trkpt lat="29.6167329" lon="105.0523181"><ele>279.35</ele><time>2026-06-19T17:55:22.000Z</time></trkpt>
        <trkpt lat="29.616661" lon="105.0522394"><ele>277.84</ele><time>2026-06-19T17:55:36.000Z</time></trkpt>
        <trkpt lat="29.6166048" lon="105.0521473"><ele>276.07</ele><time>2026-06-19T17:56:49.000Z</time></trkpt>
        <trkpt lat="29.6165493" lon="105.052062"><ele>275.05</ele><time>2026-06-19T17:57:13.000Z</time></trkpt>
        <trkpt lat="29.6165251" lon="105.0519591"><ele>274.39</ele><time>2026-06-19T17:57:25.000Z</time></trkpt>
        <trkpt lat="29.6165118" lon="105.0518445"><ele>274.93</ele><time>2026-06-19T17:57:41.000Z</time></trkpt>
        <trkpt lat="29.6164943" lon="105.0517352"><ele>274.88</ele><time>2026-06-19T17:57:55.000Z</time></trkpt>
        <trkpt lat="29.6164699" lon="105.0516285"><ele>274.58</ele><time>2026-06-19T17:58:33.000Z</time></trkpt>
        <trkpt lat="29.6164242" lon="105.0515365"><ele>274.9</ele><time>2026-06-19T17:58:51.000Z</time></trkpt>
        <trkpt lat="29.6163534" lon="105.0514654"><ele>275.45</ele><time>2026-06-19T17:59:27.000Z</time></trkpt>
        <trkpt lat="29.6162617" lon="105.05143"><ele>274.74</ele><time>2026-06-19T17:59:45.000Z</time></trkpt>
        <trkpt lat="29.6161601" lon="105.0514256"><ele>274.74</ele><time>2026-06-19T18:00:03.000Z</time></trkpt>
        <trkpt lat="29.6160572" lon="105.0514405"><ele>275.91</ele><time>2026-06-19T18:01:01.000Z</time></trkpt>
        <trkpt lat="29.6159639" lon="105.0514193"><ele>276.94</ele><time>2026-06-19T18:01:15.000Z</time></trkpt>
        <trkpt lat="29.615899" lon="105.051327"><ele>277.3</ele><time>2026-06-19T18:02:23.000Z</time></trkpt>
        <trkpt lat="29.6158206" lon="105.051366"><ele>278.29</ele><time>2026-06-19T18:02:47.000Z</time></trkpt>
        <trkpt lat="29.615733" lon="105.0513908"><ele>277.99</ele><time>2026-06-19T18:05:39.000Z</time></trkpt>
        <trkpt lat="29.6156404" lon="105.0513606"><ele>277.81</ele><time>2026-06-19T18:07:29.000Z</time></trkpt>
        <trkpt lat="29.6155581" lon="105.0513174"><ele>277.91</ele><time>2026-06-19T18:07:47.000Z</time></trkpt>
        <trkpt lat="29.61548" lon="105.0512528"><ele>278.36</ele><time>2026-06-19T18:08:07.000Z</time></trkpt>
        <trkpt lat="29.6154168" lon="105.0511752"><ele>278.25</ele><time>2026-06-19T18:09:13.000Z</time></trkpt>
        <trkpt lat="29.6153495" lon="105.051104"><ele>278.09</ele><time>2026-06-19T18:09:33.000Z</time></trkpt>
        <trkpt lat="29.6152753" lon="105.0510381"><ele>277.72</ele><time>2026-06-19T18:09:53.000Z</time></trkpt>
        <trkpt lat="29.6151978" lon="105.0509809"><ele>276.69</ele><time>2026-06-19T18:10:11.000Z</time></trkpt>
        <trkpt lat="29.6151354" lon="105.0509027"><ele>275.44</ele><time>2026-06-19T18:10:57.000Z</time></trkpt>
        <trkpt lat="29.6150593" lon="105.0508407"><ele>273.62</ele><time>2026-06-19T18:11:43.000Z</time></trkpt>
        <trkpt lat="29.6150297" lon="105.0507377"><ele>272.16</ele><time>2026-06-19T18:12:19.000Z</time></trkpt>
        <trkpt lat="29.6150657" lon="105.0506423"><ele>271.5</ele><time>2026-06-19T18:12:59.000Z</time></trkpt>
        <trkpt lat="29.6150642" lon="105.0505387"><ele>270.28</ele><time>2026-06-19T18:13:11.000Z</time></trkpt>
        <trkpt lat="29.6150082" lon="105.0504529"><ele>269.62</ele><time>2026-06-19T18:13:25.000Z</time></trkpt>
        <trkpt lat="29.6149466" lon="105.0503699"><ele>270.11</ele><time>2026-06-19T18:14:03.000Z</time></trkpt>
        <trkpt lat="29.6149217" lon="105.0502631"><ele>270.77</ele><time>2026-06-19T18:14:21.000Z</time></trkpt>
        <trkpt lat="29.614921" lon="105.050153"><ele>272.8</ele><time>2026-06-19T18:15:00.000Z</time></trkpt>
        <trkpt lat="29.6149426" lon="105.050045"><ele>274.54</ele><time>2026-06-19T18:15:14.000Z</time></trkpt>
        <trkpt lat="29.6149262" lon="105.0499373"><ele>275.78</ele><time>2026-06-19T18:15:58.000Z</time></trkpt>
        <trkpt lat="29.6149021" lon="105.0498257"><ele>276.38</ele><time>2026-06-19T18:16:14.000Z</time></trkpt>
        <trkpt lat="29.6148836" lon="105.0497139"><ele>276.66</ele><time>2026-06-19T18:16:28.000Z</time></trkpt>
        <trkpt lat="29.6148609" lon="105.049602"><ele>276.53</ele><time>2026-06-19T18:16:42.000Z</time></trkpt>
        <trkpt lat="29.6148471" lon="105.0494878"><ele>276.66</ele><time>2026-06-19T18:16:54.000Z</time></trkpt>
        <trkpt lat="29.6148357" lon="105.049373"><ele>276.53</ele><time>2026-06-19T18:17:08.000Z</time></trkpt>
        <trkpt lat="29.6148266" lon="105.0492592"><ele>276.5</ele><time>2026-06-19T18:17:22.000Z</time></trkpt>
        <trkpt lat="29.6148239" lon="105.0491465"><ele>276.58</ele><time>2026-06-19T18:17:36.000Z</time></trkpt>
        <trkpt lat="29.6148216" lon="105.0490366"><ele>277.16</ele><time>2026-06-19T18:17:50.000Z</time></trkpt>
        <trkpt lat="29.6148123" lon="105.0489319"><ele>278.08</ele><time>2026-06-19T18:30:16.000Z</time></trkpt>
        <trkpt lat="29.6147939" lon="105.0488163"><ele>278.42</ele><time>2026-06-19T18:30:34.000Z</time></trkpt>
        <trkpt lat="29.6147637" lon="105.0487036"><ele>278.39</ele><time>2026-06-19T18:30:50.000Z</time></trkpt>
        <trkpt lat="29.6147198" lon="105.0486099"><ele>278.05</ele><time>2026-06-19T18:31:04.000Z</time></trkpt>
        <trkpt lat="29.6146741" lon="105.0485111"><ele>277.76</ele><time>2026-06-19T18:31:18.000Z</time></trkpt>
        <trkpt lat="29.6146263" lon="105.0484087"><ele>277.52</ele><time>2026-06-19T18:31:32.000Z</time></trkpt>
        <trkpt lat="29.6145918" lon="105.0483072"><ele>277.24</ele><time>2026-06-19T18:31:46.000Z</time></trkpt>
        <trkpt lat="29.6145265" lon="105.0482362"><ele>276.45</ele><time>2026-06-19T18:32:21.000Z</time></trkpt>
        <trkpt lat="29.6144719" lon="105.048147"><ele>271.57</ele><time>2026-06-19T18:32:27.000Z</time></trkpt>
        <trkpt lat="29.6144258" lon="105.0480523"><ele>271.54</ele><time>2026-06-19T18:32:35.000Z</time></trkpt>
        <trkpt lat="29.6143965" lon="105.0479505"><ele>274.4</ele><time>2026-06-19T18:32:51.000Z</time></trkpt>
        <trkpt lat="29.6143586" lon="105.0478483"><ele>277.18</ele><time>2026-06-19T18:33:05.000Z</time></trkpt>
        <trkpt lat="29.614347" lon="105.0477353"><ele>278.31</ele><time>2026-06-19T18:33:25.000Z</time></trkpt>
        <trkpt lat="29.6143367" lon="105.0476274"><ele>277.82</ele><time>2026-06-19T18:33:37.000Z</time></trkpt>
        <trkpt lat="29.6143145" lon="105.0475079"><ele>277.52</ele><time>2026-06-19T18:33:51.000Z</time></trkpt>
        <trkpt lat="29.6143188" lon="105.0473951"><ele>277.68</ele><time>2026-06-19T18:34:08.000Z</time></trkpt>
        <trkpt lat="29.6143071" lon="105.0472863"><ele>276.86</ele><time>2026-06-19T18:34:35.000Z</time></trkpt>
        <trkpt lat="29.6142887" lon="105.0471837"><ele>275.34</ele><time>2026-06-19T18:37:01.000Z</time></trkpt>
        <trkpt lat="29.6142825" lon="105.0470779"><ele>273.99</ele><time>2026-06-19T18:37:23.000Z</time></trkpt>
        <trkpt lat="29.6142717" lon="105.0469708"><ele>273.8</ele><time>2026-06-19T18:37:41.000Z</time></trkpt>
        <trkpt lat="29.6142618" lon="105.0468641"><ele>273.74</ele><time>2026-06-19T18:37:55.000Z</time></trkpt>
        <trkpt lat="29.6142503" lon="105.04676"><ele>274</ele><time>2026-06-19T18:38:13.000Z</time></trkpt>
        <trkpt lat="29.6142232" lon="105.0466539"><ele>274.51</ele><time>2026-06-19T18:38:29.000Z</time></trkpt>
        <trkpt lat="29.6141677" lon="105.0465649"><ele>274.66</ele><time>2026-06-19T18:38:47.000Z</time></trkpt>
        <trkpt lat="29.6140921" lon="105.0464854"><ele>274.19</ele><time>2026-06-19T18:39:25.000Z</time></trkpt>
        <trkpt lat="29.6140706" lon="105.0464642"><ele>273.31</ele><time>2026-06-19T18:39:31.000Z</time></trkpt>
        <trkpt lat="29.6140733" lon="105.0465482"><ele>272.56</ele><time>2026-06-19T18:40:07.000Z</time></trkpt>
        <trkpt lat="29.614007" lon="105.046612"><ele>271.48</ele><time>2026-06-19T18:40:41.000Z</time></trkpt>
        <trkpt lat="29.6139187" lon="105.0465999"><ele>270.12</ele><time>2026-06-19T18:40:53.000Z</time></trkpt>
        <trkpt lat="29.6138357" lon="105.0465384"><ele>269.81</ele><time>2026-06-19T18:41:05.000Z</time></trkpt>
        <trkpt lat="29.6137576" lon="105.0464552"><ele>270.82</ele><time>2026-06-19T18:41:17.000Z</time></trkpt>
        <trkpt lat="29.6136887" lon="105.0463625"><ele>271.93</ele><time>2026-06-19T18:41:29.000Z</time></trkpt>
        <trkpt lat="29.6136367" lon="105.0462576"><ele>271.76</ele><time>2026-06-19T18:41:41.000Z</time></trkpt>
        <trkpt lat="29.6136083" lon="105.0461423"><ele>271.45</ele><time>2026-06-19T18:41:53.000Z</time></trkpt>
        <trkpt lat="29.6135883" lon="105.0460216"><ele>270.91</ele><time>2026-06-19T18:42:05.000Z</time></trkpt>
        <trkpt lat="29.6135844" lon="105.045908"><ele>270.5</ele><time>2026-06-19T18:42:17.000Z</time></trkpt>
        <trkpt lat="29.6135722" lon="105.0458025"><ele>270.47</ele><time>2026-06-19T18:42:29.000Z</time></trkpt>
        <trkpt lat="29.6135372" lon="105.0456995"><ele>270.64</ele><time>2026-06-19T18:42:41.000Z</time></trkpt>
        <trkpt lat="29.6134779" lon="105.0456123"><ele>270.61</ele><time>2026-06-19T18:42:53.000Z</time></trkpt>
        <trkpt lat="29.6133925" lon="105.0455579"><ele>270.53</ele><time>2026-06-19T18:43:05.000Z</time></trkpt>
        <trkpt lat="29.6132879" lon="105.0455422"><ele>270.38</ele><time>2026-06-19T18:43:17.000Z</time></trkpt>
        <trkpt lat="29.6131875" lon="105.045537"><ele>269.63</ele><time>2026-06-19T18:43:27.000Z</time></trkpt>
        <trkpt lat="29.6130866" lon="105.0455434"><ele>270.46</ele><time>2026-06-19T18:44:43.000Z</time></trkpt>
        <trkpt lat="29.6130093" lon="105.0454868"><ele>273.3</ele><time>2026-06-19T18:45:01.000Z</time></trkpt>
        <trkpt lat="29.6129143" lon="105.045437"><ele>274.65</ele><time>2026-06-19T18:45:19.000Z</time></trkpt>
        <trkpt lat="29.6128574" lon="105.0453565"><ele>275.05</ele><time>2026-06-19T18:45:33.000Z</time></trkpt>
        <trkpt lat="29.6128448" lon="105.0452511"><ele>273.83</ele><time>2026-06-19T18:45:45.000Z</time></trkpt>
        <trkpt lat="29.6127764" lon="105.0452031"><ele>272.24</ele><time>2026-06-19T18:46:59.000Z</time></trkpt>
        <trkpt lat="29.6126799" lon="105.0452216"><ele>271.18</ele><time>2026-06-19T18:47:13.000Z</time></trkpt>
        <trkpt lat="29.6126595" lon="105.0451249"><ele>271.6</ele><time>2026-06-19T18:47:27.000Z</time></trkpt>
        <trkpt lat="29.6125891" lon="105.0450634"><ele>271.21</ele><time>2026-06-19T18:47:45.000Z</time></trkpt>
        <trkpt lat="29.6126304" lon="105.0450873"><ele>271.92</ele><time>2026-06-19T18:48:41.000Z</time></trkpt>
        <trkpt lat="29.6126656" lon="105.0451818"><ele>270.75</ele><time>2026-06-19T18:48:51.000Z</time></trkpt>
        <trkpt lat="29.6127607" lon="105.0452135"><ele>270.38</ele><time>2026-06-19T18:49:03.000Z</time></trkpt>
        <trkpt lat="29.6128571" lon="105.0452534"><ele>270.27</ele><time>2026-06-19T18:49:15.000Z</time></trkpt>
        <trkpt lat="29.6127931" lon="105.0452015"><ele>269.93</ele><time>2026-06-19T18:51:37.000Z</time></trkpt>
        <trkpt lat="29.6126975" lon="105.0452308"><ele>270.18</ele><time>2026-06-19T18:51:55.000Z</time></trkpt>
        <trkpt lat="29.6126599" lon="105.0451444"><ele>270.95</ele><time>2026-06-19T18:52:09.000Z</time></trkpt>
        <trkpt lat="29.6125983" lon="105.0450685"><ele>270.63</ele><time>2026-06-19T18:52:23.000Z</time></trkpt>
        <trkpt lat="29.6125105" lon="105.0450551"><ele>271.29</ele><time>2026-06-19T18:52:37.000Z</time></trkpt>
        <trkpt lat="29.6124235" lon="105.0450199"><ele>271.82</ele><time>2026-06-19T18:52:53.000Z</time></trkpt>
        <trkpt lat="29.612367" lon="105.0449351"><ele>271.74</ele><time>2026-06-19T18:53:05.000Z</time></trkpt>
        <trkpt lat="29.6122859" lon="105.0449164"><ele>272.01</ele><time>2026-06-19T18:53:17.000Z</time></trkpt>
        <trkpt lat="29.6121993" lon="105.0449412"><ele>271.73</ele><time>2026-06-19T18:53:29.000Z</time></trkpt>
        <trkpt lat="29.6121055" lon="105.0449627"><ele>271.36</ele><time>2026-06-19T18:53:41.000Z</time></trkpt>
        <trkpt lat="29.6120037" lon="105.0449912"><ele>271.23</ele><time>2026-06-19T18:53:53.000Z</time></trkpt>
        <trkpt lat="29.611897" lon="105.0450168"><ele>271.09</ele><time>2026-06-19T18:54:05.000Z</time></trkpt>
        <trkpt lat="29.6117902" lon="105.0450376"><ele>271.04</ele><time>2026-06-19T18:54:17.000Z</time></trkpt>
        <trkpt lat="29.6117276" lon="105.0451239"><ele>271.08</ele><time>2026-06-19T18:54:31.000Z</time></trkpt>
        <trkpt lat="29.6117157" lon="105.0452322"><ele>267.69</ele><time>2026-06-19T18:54:43.000Z</time></trkpt>
        <trkpt lat="29.6117038" lon="105.045351"><ele>260.77</ele><time>2026-06-19T18:54:53.000Z</time></trkpt>
        <trkpt lat="29.6116317" lon="105.0453938"><ele>258.97</ele><time>2026-06-19T18:55:03.000Z</time></trkpt>
        <trkpt lat="29.6115384" lon="105.045382"><ele>253.98</ele><time>2026-06-19T18:55:13.000Z</time></trkpt>
        <trkpt lat="29.6114492" lon="105.0452973"><ele>252</ele><time>2026-06-19T18:55:23.000Z</time></trkpt>
        <trkpt lat="29.6113797" lon="105.0451931"><ele>255.33</ele><time>2026-06-19T18:55:39.000Z</time></trkpt>
        <trkpt lat="29.6113115" lon="105.0451054"><ele>259.56</ele><time>2026-06-19T18:56:03.000Z</time></trkpt>
        <trkpt lat="29.6112455" lon="105.0450172"><ele>264.92</ele><time>2026-06-19T18:56:13.000Z</time></trkpt>
        <trkpt lat="29.6111619" lon="105.0449462"><ele>268.16</ele><time>2026-06-19T18:56:25.000Z</time></trkpt>
        <trkpt lat="29.6110798" lon="105.044888"><ele>269.96</ele><time>2026-06-19T18:56:37.000Z</time></trkpt>
        <trkpt lat="29.6109908" lon="105.0448624"><ele>269.16</ele><time>2026-06-19T18:56:49.000Z</time></trkpt>
        <trkpt lat="29.6108968" lon="105.0448651"><ele>268.53</ele><time>2026-06-19T18:57:01.000Z</time></trkpt>
        <trkpt lat="29.6108007" lon="105.0448559"><ele>269.5</ele><time>2026-06-19T18:57:17.000Z</time></trkpt>
        <trkpt lat="29.6107127" lon="105.0448228"><ele>271.16</ele><time>2026-06-19T18:58:07.000Z</time></trkpt>
        <trkpt lat="29.6106527" lon="105.0447373"><ele>270.8</ele><time>2026-06-19T18:58:23.000Z</time></trkpt>
        <trkpt lat="29.6105819" lon="105.0446704"><ele>270.75</ele><time>2026-06-19T18:58:57.000Z</time></trkpt>
        <trkpt lat="29.6105096" lon="105.0446009"><ele>271.22</ele><time>2026-06-19T18:59:13.000Z</time></trkpt>
        <trkpt lat="29.6104215" lon="105.044546"><ele>271.17</ele><time>2026-06-19T18:59:27.000Z</time></trkpt>
        <trkpt lat="29.610319" lon="105.0445203"><ele>270.33</ele><time>2026-06-19T18:59:41.000Z</time></trkpt>
        <trkpt lat="29.6102137" lon="105.0445167"><ele>270.34</ele><time>2026-06-19T18:59:55.000Z</time></trkpt>
        <trkpt lat="29.6101082" lon="105.0445404"><ele>269.88</ele><time>2026-06-19T19:00:09.000Z</time></trkpt>
        <trkpt lat="29.6100195" lon="105.044597"><ele>270.33</ele><time>2026-06-19T19:00:27.000Z</time></trkpt>
        <trkpt lat="29.6099464" lon="105.0446801"><ele>269.88</ele><time>2026-06-19T19:00:39.000Z</time></trkpt>
        <trkpt lat="29.6098995" lon="105.04479"><ele>269.14</ele><time>2026-06-19T19:00:51.000Z</time></trkpt>
        <trkpt lat="29.6098834" lon="105.0449062"><ele>268.78</ele><time>2026-06-19T19:01:01.000Z</time></trkpt>
        <trkpt lat="29.6098918" lon="105.0450167"><ele>268.4</ele><time>2026-06-19T19:01:11.000Z</time></trkpt>
        <trkpt lat="29.6098491" lon="105.0449932"><ele>267.4</ele><time>2026-06-19T19:01:37.000Z</time></trkpt>
        <trkpt lat="29.6098334" lon="105.0448894"><ele>267.31</ele><time>2026-06-19T19:01:47.000Z</time></trkpt>
        <trkpt lat="29.6098373" lon="105.0447621"><ele>267.2</ele><time>2026-06-19T19:01:57.000Z</time></trkpt>
        <trkpt lat="29.6098334" lon="105.0446278"><ele>267.43</ele><time>2026-06-19T19:02:09.000Z</time></trkpt>
        <trkpt lat="29.6098202" lon="105.0445018"><ele>267.96</ele><time>2026-06-19T19:02:19.000Z</time></trkpt>
        <trkpt lat="29.6097915" lon="105.0443923"><ele>269.28</ele><time>2026-06-19T19:02:35.000Z</time></trkpt>
        <trkpt lat="29.6097267" lon="105.0443191"><ele>270.27</ele><time>2026-06-19T19:03:17.000Z</time></trkpt>
        <trkpt lat="29.6096674" lon="105.044239"><ele>269.44</ele><time>2026-06-19T19:03:27.000Z</time></trkpt>
        <trkpt lat="29.6095938" lon="105.044162"><ele>268.52</ele><time>2026-06-19T19:03:37.000Z</time></trkpt>
        <trkpt lat="29.6095228" lon="105.0440717"><ele>266.89</ele><time>2026-06-19T19:03:49.000Z</time></trkpt>
        <trkpt lat="29.6094433" lon="105.0439843"><ele>266.55</ele><time>2026-06-19T19:04:01.000Z</time></trkpt>
        <trkpt lat="29.6093915" lon="105.0439079"><ele>267.47</ele><time>2026-06-19T19:04:11.000Z</time></trkpt>
        <trkpt lat="29.6093457" lon="105.0438143"><ele>268.56</ele><time>2026-06-19T19:04:25.000Z</time></trkpt>
        <trkpt lat="29.6093045" lon="105.0437207"><ele>268.74</ele><time>2026-06-19T19:04:35.000Z</time></trkpt>
        <trkpt lat="29.609254" lon="105.0436301"><ele>268.56</ele><time>2026-06-19T19:04:49.000Z</time></trkpt>
        <trkpt lat="29.6092188" lon="105.0435282"><ele>269.39</ele><time>2026-06-19T19:05:07.000Z</time></trkpt>
        <trkpt lat="29.6092398" lon="105.0434192"><ele>269.43</ele><time>2026-06-19T19:05:23.000Z</time></trkpt>
        <trkpt lat="29.6092682" lon="105.043302"><ele>268.74</ele><time>2026-06-19T19:05:35.000Z</time></trkpt>
        <trkpt lat="29.6092598" lon="105.0431788"><ele>268.68</ele><time>2026-06-19T19:05:52.000Z</time></trkpt>
        <trkpt lat="29.6092512" lon="105.0431324"><ele>269.17</ele><time>2026-06-19T19:05:56.000Z</time></trkpt>
        <trkpt lat="29.609224" lon="105.0430547"><ele>269.67</ele><time>2026-06-19T19:06:08.000Z</time></trkpt>
        <trkpt lat="29.6091726" lon="105.0429612"><ele>269.62</ele><time>2026-06-19T19:06:20.000Z</time></trkpt>
        <trkpt lat="29.6091177" lon="105.0428598"><ele>269.4</ele><time>2026-06-19T19:06:34.000Z</time></trkpt>
        <trkpt lat="29.6090607" lon="105.0427516"><ele>270.08</ele><time>2026-06-19T19:06:46.000Z</time></trkpt>
        <trkpt lat="29.6089718" lon="105.0426717"><ele>269.42</ele><time>2026-06-19T19:07:00.000Z</time></trkpt>
        <trkpt lat="29.6088794" lon="105.0426083"><ele>269.59</ele><time>2026-06-19T19:07:12.000Z</time></trkpt>
        <trkpt lat="29.6088598" lon="105.0425779"><ele>271.01</ele><time>2026-06-19T19:07:16.000Z</time></trkpt>
        <trkpt lat="29.6087909" lon="105.042559"><ele>271.27</ele><time>2026-06-19T19:07:32.000Z</time></trkpt>
        <trkpt lat="29.608692" lon="105.0425724"><ele>270.44</ele><time>2026-06-19T19:07:54.000Z</time></trkpt>
        <trkpt lat="29.6085624" lon="105.0425614"><ele>270.62</ele><time>2026-06-19T19:08:09.000Z</time></trkpt>
        <trkpt lat="29.6085007" lon="105.0425258"><ele>272.42</ele><time>2026-06-19T19:08:16.000Z</time></trkpt>
        <trkpt lat="29.6084135" lon="105.0424965"><ele>272.52</ele><time>2026-06-19T19:08:44.000Z</time></trkpt>
        <trkpt lat="29.6083166" lon="105.0424871"><ele>271.85</ele><time>2026-06-19T19:08:58.000Z</time></trkpt>
        <trkpt lat="29.6082176" lon="105.0425132"><ele>270.21</ele><time>2026-06-19T19:09:08.000Z</time></trkpt>
        <trkpt lat="29.6081346" lon="105.042567"><ele>268.86</ele><time>2026-06-19T19:09:18.000Z</time></trkpt>
        <trkpt lat="29.6080605" lon="105.0426479"><ele>267.49</ele><time>2026-06-19T19:09:30.000Z</time></trkpt>
        <trkpt lat="29.6079879" lon="105.0427339"><ele>265.98</ele><time>2026-06-19T19:09:40.000Z</time></trkpt>
        <trkpt lat="29.6079184" lon="105.0428277"><ele>266.51</ele><time>2026-06-19T19:09:50.000Z</time></trkpt>
        <trkpt lat="29.6078677" lon="105.0429068"><ele>266.98</ele><time>2026-06-19T19:10:02.000Z</time></trkpt>
        <trkpt lat="29.607823" lon="105.0429963"><ele>267.13</ele><time>2026-06-19T19:10:50.000Z</time></trkpt>
        <trkpt lat="29.6078671" lon="105.0430777"><ele>268.27</ele><time>2026-06-19T19:11:04.000Z</time></trkpt>
        <trkpt lat="29.6079668" lon="105.04308"><ele>269.66</ele><time>2026-06-19T19:11:12.000Z</time></trkpt>
        <trkpt lat="29.6080033" lon="105.0431496"><ele>271.01</ele><time>2026-06-19T19:11:26.000Z</time></trkpt>
        <trkpt lat="29.6079513" lon="105.0432213"><ele>272.02</ele><time>2026-06-19T19:11:38.000Z</time></trkpt>
        <trkpt lat="29.6078712" lon="105.0433016"><ele>272.61</ele><time>2026-06-19T19:11:54.000Z</time></trkpt>
        <trkpt lat="29.607786" lon="105.0433955"><ele>275.11</ele><time>2026-06-19T19:12:08.000Z</time></trkpt>
        <trkpt lat="29.6077551" lon="105.0434168"><ele>277.74</ele><time>2026-06-19T19:12:10.000Z</time></trkpt>
        <trkpt lat="29.6077168" lon="105.0434851"><ele>279.48</ele><time>2026-06-19T19:13:08.000Z</time></trkpt>
        <trkpt lat="29.6078029" lon="105.0435354"><ele>281.5</ele><time>2026-06-19T19:15:44.000Z</time></trkpt>
        <trkpt lat="29.6077895" lon="105.0434194"><ele>283.24</ele><time>2026-06-19T19:17:03.000Z</time></trkpt>
        <trkpt lat="29.6077487" lon="105.0435118"><ele>282.99</ele><time>2026-06-19T19:18:01.000Z</time></trkpt>
        <trkpt lat="29.6077513" lon="105.0435606"><ele>283.53</ele><time>2026-06-19T19:18:11.000Z</time></trkpt>
        <trkpt lat="29.6077051" lon="105.0434675"><ele>284.2</ele><time>2026-06-19T19:20:50.000Z</time></trkpt>
        <trkpt lat="29.6076138" lon="105.0434702"><ele>284.58</ele><time>2026-06-19T19:20:58.000Z</time></trkpt>
        <trkpt lat="29.607511" lon="105.0434492"><ele>284.34</ele><time>2026-06-19T19:21:08.000Z</time></trkpt>
        <trkpt lat="29.6074194" lon="105.0434249"><ele>284.12</ele><time>2026-06-19T19:21:16.000Z</time></trkpt>
        <trkpt lat="29.6073947" lon="105.0434159"><ele>284.35</ele><time>2026-06-19T19:21:18.000Z</time></trkpt>
        <trkpt lat="29.6073411" lon="105.0433599"><ele>284.49</ele><time>2026-06-19T19:21:36.000Z</time></trkpt>
        <trkpt lat="29.6072716" lon="105.0432723"><ele>284.17</ele><time>2026-06-19T19:21:46.000Z</time></trkpt>
        <trkpt lat="29.6072097" lon="105.0431833"><ele>282.23</ele><time>2026-06-19T19:21:54.000Z</time></trkpt>
        <trkpt lat="29.6071519" lon="105.0430962"><ele>280.9</ele><time>2026-06-19T19:22:02.000Z</time></trkpt>
        <trkpt lat="29.6070955" lon="105.0429967"><ele>279.24</ele><time>2026-06-19T19:22:12.000Z</time></trkpt>
        <trkpt lat="29.6070648" lon="105.0428857"><ele>277.26</ele><time>2026-06-19T19:22:22.000Z</time></trkpt>
        <trkpt lat="29.6070558" lon="105.0427772"><ele>276.25</ele><time>2026-06-19T19:22:30.000Z</time></trkpt>
        <trkpt lat="29.607061" lon="105.0426681"><ele>275.18</ele><time>2026-06-19T19:22:38.000Z</time></trkpt>
        <trkpt lat="29.6070028" lon="105.0425915"><ele>274.86</ele><time>2026-06-19T19:22:48.000Z</time></trkpt>
        <trkpt lat="29.6069413" lon="105.0425726"><ele>273.8</ele><time>2026-06-19T19:22:58.000Z</time></trkpt>
        <trkpt lat="29.606852" lon="105.0425825"><ele>271.6</ele><time>2026-06-19T19:23:30.000Z</time></trkpt>
        <trkpt lat="29.6067582" lon="105.0426133"><ele>267.02</ele><time>2026-06-19T19:23:34.000Z</time></trkpt>
        <trkpt lat="29.6066651" lon="105.0426474"><ele>264.28</ele><time>2026-06-19T19:23:42.000Z</time></trkpt>
        <trkpt lat="29.6066042" lon="105.0426988"><ele>261.94</ele><time>2026-06-19T19:23:44.000Z</time></trkpt>
        <trkpt lat="29.6065448" lon="105.0427741"><ele>260.43</ele><time>2026-06-19T19:23:48.000Z</time></trkpt>
        <trkpt lat="29.6064841" lon="105.0429099"><ele>258.33</ele><time>2026-06-19T19:23:54.000Z</time></trkpt>
        <trkpt lat="29.606449" lon="105.0430331"><ele>255.63</ele><time>2026-06-19T19:23:58.000Z</time></trkpt>
        <trkpt lat="29.6064042" lon="105.0431651"><ele>255.53</ele><time>2026-06-19T19:24:06.000Z</time></trkpt>
        <trkpt lat="29.60637" lon="105.0432833"><ele>260.08</ele><time>2026-06-19T19:24:12.000Z</time></trkpt>
        <trkpt lat="29.6063364" lon="105.0433908"><ele>259.79</ele><time>2026-06-19T19:24:24.000Z</time></trkpt>
        <trkpt lat="29.6062912" lon="105.0433327"><ele>260.97</ele><time>2026-06-19T19:24:36.000Z</time></trkpt>
        <trkpt lat="29.6062521" lon="105.0431825"><ele>262.56</ele><time>2026-06-19T19:24:40.000Z</time></trkpt>
        <trkpt lat="29.6061419" lon="105.0429165"><ele>260.79</ele><time>2026-06-19T19:24:48.000Z</time></trkpt>
        <trkpt lat="29.6058746" lon="105.0427137"><ele>256.07</ele><time>2026-06-19T19:24:56.000Z</time></trkpt>
        <trkpt lat="29.6057019" lon="105.0426345"><ele>260.59</ele><time>2026-06-19T19:25:04.000Z</time></trkpt>
        <trkpt lat="29.6055846" lon="105.0426035"><ele>265.34</ele><time>2026-06-19T19:25:12.000Z</time></trkpt>
        <trkpt lat="29.6054868" lon="105.0425772"><ele>269.18</ele><time>2026-06-19T19:25:22.000Z</time></trkpt>
        <trkpt lat="29.6054214" lon="105.0425017"><ele>272.37</ele><time>2026-06-19T19:25:32.000Z</time></trkpt>
        <trkpt lat="29.6053713" lon="105.0424009"><ele>274.26</ele><time>2026-06-19T19:25:40.000Z</time></trkpt>
        <trkpt lat="29.6052926" lon="105.0423315"><ele>279.03</ele><time>2026-06-19T19:25:50.000Z</time></trkpt>
        <trkpt lat="29.6051992" lon="105.0422738"><ele>282.84</ele><time>2026-06-19T19:26:00.000Z</time></trkpt>
        <trkpt lat="29.605101" lon="105.0422305"><ele>284.7</ele><time>2026-06-19T19:26:10.000Z</time></trkpt>
        <trkpt lat="29.6049906" lon="105.0422235"><ele>285.51</ele><time>2026-06-19T19:26:20.000Z</time></trkpt>
        <trkpt lat="29.6048944" lon="105.0422631"><ele>284.35</ele><time>2026-06-19T19:26:28.000Z</time></trkpt>
        <trkpt lat="29.6048074" lon="105.0423167"><ele>282.11</ele><time>2026-06-19T19:26:36.000Z</time></trkpt>
        <trkpt lat="29.6047101" lon="105.0423728"><ele>280.54</ele><time>2026-06-19T19:26:46.000Z</time></trkpt>
        <trkpt lat="29.6046204" lon="105.0424203"><ele>279.42</ele><time>2026-06-19T19:26:56.000Z</time></trkpt>
        <trkpt lat="29.6045504" lon="105.0424969"><ele>277.66</ele><time>2026-06-19T19:27:06.000Z</time></trkpt>
        <trkpt lat="29.6044877" lon="105.0425836"><ele>273.48</ele><time>2026-06-19T19:27:14.000Z</time></trkpt>
        <trkpt lat="29.6044277" lon="105.0426726"><ele>270.69</ele><time>2026-06-19T19:27:22.000Z</time></trkpt>
        <trkpt lat="29.604354" lon="105.0427474"><ele>269.69</ele><time>2026-06-19T19:27:32.000Z</time></trkpt>
        <trkpt lat="29.6042632" lon="105.0427789"><ele>269.08</ele><time>2026-06-19T19:27:42.000Z</time></trkpt>
        <trkpt lat="29.6041686" lon="105.0427706"><ele>268.72</ele><time>2026-06-19T19:27:52.000Z</time></trkpt>
        <trkpt lat="29.604067" lon="105.0427618"><ele>269.74</ele><time>2026-06-19T19:28:02.000Z</time></trkpt>
        <trkpt lat="29.6039708" lon="105.0427612"><ele>270.32</ele><time>2026-06-19T19:28:12.000Z</time></trkpt>
        <trkpt lat="29.603882" lon="105.0427873"><ele>271.13</ele><time>2026-06-19T19:28:22.000Z</time></trkpt>
        <trkpt lat="29.6037967" lon="105.0428295"><ele>271.7</ele><time>2026-06-19T19:28:34.000Z</time></trkpt>
        <trkpt lat="29.6038182" lon="105.0427355"><ele>272.37</ele><time>2026-06-19T19:30:28.000Z</time></trkpt>
        <trkpt lat="29.6037928" lon="105.0426289"><ele>270.59</ele><time>2026-06-19T19:30:40.000Z</time></trkpt>
        <trkpt lat="29.6037559" lon="105.0425162"><ele>269.42</ele><time>2026-06-19T19:30:54.000Z</time></trkpt>
        <trkpt lat="29.6037138" lon="105.0424076"><ele>268.97</ele><time>2026-06-19T19:31:06.000Z</time></trkpt>
        <trkpt lat="29.60367" lon="105.0423097"><ele>269.71</ele><time>2026-06-19T19:31:18.000Z</time></trkpt>
        <trkpt lat="29.6036172" lon="105.0422213"><ele>270.18</ele><time>2026-06-19T19:31:30.000Z</time></trkpt>
        <trkpt lat="29.6035572" lon="105.0421417"><ele>270.41</ele><time>2026-06-19T19:31:42.000Z</time></trkpt>
        <trkpt lat="29.6034755" lon="105.0421482"><ele>270.02</ele><time>2026-06-19T19:31:56.000Z</time></trkpt>
        <trkpt lat="29.6033975" lon="105.0422141"><ele>270.23</ele><time>2026-06-19T19:32:22.000Z</time></trkpt>
        <trkpt lat="29.6034006" lon="105.042318"><ele>270.1</ele><time>2026-06-19T19:32:36.000Z</time></trkpt>
        <trkpt lat="29.6035" lon="105.0424101"><ele>268.82</ele><time>2026-06-19T19:35:40.000Z</time></trkpt>
        <trkpt lat="29.6035572" lon="105.0424984"><ele>266.88</ele><time>2026-06-19T19:35:50.000Z</time></trkpt>
        <trkpt lat="29.6036011" lon="105.0425937"><ele>265.23</ele><time>2026-06-19T19:35:58.000Z</time></trkpt>
        <trkpt lat="29.6036341" lon="105.0427038"><ele>264.62</ele><time>2026-06-19T19:36:08.000Z</time></trkpt>
        <trkpt lat="29.6036601" lon="105.042823"><ele>263.69</ele><time>2026-06-19T19:36:18.000Z</time></trkpt>
        <trkpt lat="29.6036728" lon="105.0429494"><ele>263.13</ele><time>2026-06-19T19:36:28.000Z</time></trkpt>
        <trkpt lat="29.6036815" lon="105.0430767"><ele>263.1</ele><time>2026-06-19T19:36:38.000Z</time></trkpt>
        <trkpt lat="29.6036848" lon="105.0432026"><ele>263.64</ele><time>2026-06-19T19:36:48.000Z</time></trkpt>
        <trkpt lat="29.6036954" lon="105.0433193"><ele>264.09</ele><time>2026-06-19T19:36:58.000Z</time></trkpt>
        <trkpt lat="29.603698" lon="105.0434319"><ele>264.32</ele><time>2026-06-19T19:37:08.000Z</time></trkpt>
        <trkpt lat="29.6036997" lon="105.0435435"><ele>264.61</ele><time>2026-06-19T19:37:18.000Z</time></trkpt>
        <trkpt lat="29.603729" lon="105.0436523"><ele>265.12</ele><time>2026-06-19T19:37:30.000Z</time></trkpt>
        <trkpt lat="29.6037568" lon="105.0437545"><ele>265.3</ele><time>2026-06-19T19:37:44.000Z</time></trkpt>
        <trkpt lat="29.603711" lon="105.0438376"><ele>264.21</ele><time>2026-06-19T19:37:54.000Z</time></trkpt>
        <trkpt lat="29.603647" lon="105.043913"><ele>264.33</ele><time>2026-06-19T19:38:10.000Z</time></trkpt>
        <trkpt lat="29.6035661" lon="105.0439881"><ele>263.65</ele><time>2026-06-19T19:39:20.000Z</time></trkpt>
        <trkpt lat="29.6034785" lon="105.0439346"><ele>265.01</ele><time>2026-06-19T19:39:30.000Z</time></trkpt>
        <trkpt lat="29.6034527" lon="105.0439187"><ele>266.42</ele><time>2026-06-19T19:39:36.000Z</time></trkpt>
        <trkpt lat="29.6034006" lon="105.0438438"><ele>267.15</ele><time>2026-06-19T19:40:20.000Z</time></trkpt>
        <trkpt lat="29.6033625" lon="105.0437384"><ele>266.85</ele><time>2026-06-19T19:40:30.000Z</time></trkpt>
        <trkpt lat="29.6033413" lon="105.0436246"><ele>266.89</ele><time>2026-06-19T19:40:40.000Z</time></trkpt>
        <trkpt lat="29.6033372" lon="105.0435081"><ele>267.27</ele><time>2026-06-19T19:40:50.000Z</time></trkpt>
        <trkpt lat="29.6033348" lon="105.0433833"><ele>266.49</ele><time>2026-06-19T19:41:00.000Z</time></trkpt>
        <trkpt lat="29.6033376" lon="105.0432675"><ele>266.48</ele><time>2026-06-19T19:41:10.000Z</time></trkpt>
        <trkpt lat="29.603359" lon="105.0431835"><ele>266.4</ele><time>2026-06-19T19:41:20.000Z</time></trkpt>
        <trkpt lat="29.6033558" lon="105.0430779"><ele>264.1</ele><time>2026-06-19T19:41:36.000Z</time></trkpt>
        <trkpt lat="29.6033401" lon="105.0429696"><ele>262.53</ele><time>2026-06-19T19:41:46.000Z</time></trkpt>
        <trkpt lat="29.6033215" lon="105.042857"><ele>262.44</ele><time>2026-06-19T19:41:56.000Z</time></trkpt>
        <trkpt lat="29.6032941" lon="105.0427487"><ele>262.62</ele><time>2026-06-19T19:42:06.000Z</time></trkpt>
        <trkpt lat="29.6032432" lon="105.042657"><ele>264.18</ele><time>2026-06-19T19:42:16.000Z</time></trkpt>
        <trkpt lat="29.603193" lon="105.0425644"><ele>265.01</ele><time>2026-06-19T19:42:26.000Z</time></trkpt>
        <trkpt lat="29.6031302" lon="105.0424682"><ele>265.7</ele><time>2026-06-19T19:42:38.000Z</time></trkpt>
        <trkpt lat="29.6030659" lon="105.042383"><ele>265.83</ele><time>2026-06-19T19:42:48.000Z</time></trkpt>
        <trkpt lat="29.6030096" lon="105.042293"><ele>266.52</ele><time>2026-06-19T19:42:58.000Z</time></trkpt>
        <trkpt lat="29.6029435" lon="105.0422024"><ele>267.78</ele><time>2026-06-19T19:43:10.000Z</time></trkpt>
        <trkpt lat="29.6028808" lon="105.0421216"><ele>268.35</ele><time>2026-06-19T19:43:20.000Z</time></trkpt>
        <trkpt lat="29.6028148" lon="105.0420361"><ele>268.94</ele><time>2026-06-19T19:43:32.000Z</time></trkpt>
        <trkpt lat="29.602744" lon="105.0419544"><ele>267.74</ele><time>2026-06-19T19:43:42.000Z</time></trkpt>
        <trkpt lat="29.6026822" lon="105.0418646"><ele>265.91</ele><time>2026-06-19T19:43:52.000Z</time></trkpt>
        <trkpt lat="29.6026074" lon="105.0417787"><ele>264.11</ele><time>2026-06-19T19:44:02.000Z</time></trkpt>
        <trkpt lat="29.6025484" lon="105.0416922"><ele>262.34</ele><time>2026-06-19T19:44:12.000Z</time></trkpt>
        <trkpt lat="29.6025191" lon="105.0416119"><ele>260.46</ele><time>2026-06-19T19:44:22.000Z</time></trkpt>
        <trkpt lat="29.6024787" lon="105.0415276"><ele>258.71</ele><time>2026-06-19T19:44:42.000Z</time></trkpt>
        <trkpt lat="29.6024462" lon="105.0414437"><ele>260.57</ele><time>2026-06-19T19:44:54.000Z</time></trkpt>
        <trkpt lat="29.6024578" lon="105.04134"><ele>260.52</ele><time>2026-06-19T19:46:04.000Z</time></trkpt>
        <trkpt lat="29.6024448" lon="105.0412239"><ele>262.15</ele><time>2026-06-19T19:46:14.000Z</time></trkpt>
        <trkpt lat="29.6024686" lon="105.0411102"><ele>263.58</ele><time>2026-06-19T19:46:24.000Z</time></trkpt>
        <trkpt lat="29.6025062" lon="105.0409938"><ele>264.2</ele><time>2026-06-19T19:46:34.000Z</time></trkpt>
        <trkpt lat="29.6025617" lon="105.0408837"><ele>264.57</ele><time>2026-06-19T19:46:44.000Z</time></trkpt>
        <trkpt lat="29.602619" lon="105.0407881"><ele>265.31</ele><time>2026-06-19T19:46:54.000Z</time></trkpt>
        <trkpt lat="29.6026801" lon="105.0407044"><ele>265.81</ele><time>2026-06-19T19:47:02.000Z</time></trkpt>
        <trkpt lat="29.6027389" lon="105.0406108"><ele>266.27</ele><time>2026-06-19T19:47:12.000Z</time></trkpt>
        <trkpt lat="29.6027976" lon="105.0405152"><ele>266.09</ele><time>2026-06-19T19:47:22.000Z</time></trkpt>
        <trkpt lat="29.6028521" lon="105.0404115"><ele>265.93</ele><time>2026-06-19T19:47:32.000Z</time></trkpt>
        <trkpt lat="29.6029103" lon="105.0403109"><ele>265.81</ele><time>2026-06-19T19:47:42.000Z</time></trkpt>
        <trkpt lat="29.6029689" lon="105.0402086"><ele>265.54</ele><time>2026-06-19T19:47:52.000Z</time></trkpt>
        <trkpt lat="29.6030293" lon="105.0401085"><ele>265.4</ele><time>2026-06-19T19:48:02.000Z</time></trkpt>
        <trkpt lat="29.6030747" lon="105.0400009"><ele>265.46</ele><time>2026-06-19T19:48:12.000Z</time></trkpt>
        <trkpt lat="29.6031161" lon="105.0399046"><ele>265.91</ele><time>2026-06-19T19:48:20.000Z</time></trkpt>
        <trkpt lat="29.6031333" lon="105.0398025"><ele>266.52</ele><time>2026-06-19T19:48:30.000Z</time></trkpt>
        <trkpt lat="29.6031242" lon="105.0396977"><ele>267.63</ele><time>2026-06-19T19:48:40.000Z</time></trkpt>
        <trkpt lat="29.6030984" lon="105.0396091"><ele>267.73</ele><time>2026-06-19T19:48:56.000Z</time></trkpt>
        <trkpt lat="29.6031062" lon="105.0394999"><ele>267.92</ele><time>2026-06-19T19:49:22.000Z</time></trkpt>
        <trkpt lat="29.6031394" lon="105.0394396"><ele>267.57</ele><time>2026-06-19T19:49:30.000Z</time></trkpt>
        <trkpt lat="29.6031654" lon="105.0393506"><ele>265.71</ele><time>2026-06-19T19:50:24.000Z</time></trkpt>
        <trkpt lat="29.6031869" lon="105.0392466"><ele>265.47</ele><time>2026-06-19T19:50:34.000Z</time></trkpt>
        <trkpt lat="29.6031858" lon="105.0391231"><ele>266.37</ele><time>2026-06-19T19:50:44.000Z</time></trkpt>
        <trkpt lat="29.6031722" lon="105.0389938"><ele>267.14</ele><time>2026-06-19T19:50:54.000Z</time></trkpt>
        <trkpt lat="29.6031434" lon="105.0388736"><ele>266.97</ele><time>2026-06-19T19:51:04.000Z</time></trkpt>
        <trkpt lat="29.6031087" lon="105.0387579"><ele>267.41</ele><time>2026-06-19T19:51:14.000Z</time></trkpt>
        <trkpt lat="29.6030824" lon="105.0387047"><ele>267.67</ele><time>2026-06-19T19:51:24.000Z</time></trkpt>
        <trkpt lat="29.6030495" lon="105.0386106"><ele>266.94</ele><time>2026-06-19T19:51:34.000Z</time></trkpt>
        <trkpt lat="29.6030139" lon="105.038509"><ele>266.87</ele><time>2026-06-19T19:51:44.000Z</time></trkpt>
        <trkpt lat="29.6029777" lon="105.0383957"><ele>266.84</ele><time>2026-06-19T19:51:56.000Z</time></trkpt>
        <trkpt lat="29.6029405" lon="105.0382946"><ele>267.12</ele><time>2026-06-19T19:52:08.000Z</time></trkpt>
        <trkpt lat="29.6028796" lon="105.038188"><ele>267.92</ele><time>2026-06-19T19:52:22.000Z</time></trkpt>
        <trkpt lat="29.6028134" lon="105.0381047"><ele>259.57</ele><time>2026-06-19T19:52:28.000Z</time></trkpt>
        <trkpt lat="29.6027284" lon="105.0380388"><ele>253.16</ele><time>2026-06-19T19:52:38.000Z</time></trkpt>
        <trkpt lat="29.6026337" lon="105.0380303"><ele>254.54</ele><time>2026-06-19T19:52:48.000Z</time></trkpt>
        <trkpt lat="29.6025399" lon="105.0380461"><ele>257.49</ele><time>2026-06-19T19:52:58.000Z</time></trkpt>
        <trkpt lat="29.6024472" lon="105.0380845"><ele>260.26</ele><time>2026-06-19T19:53:10.000Z</time></trkpt>
        <trkpt lat="29.6023435" lon="105.0381093"><ele>262.31</ele><time>2026-06-19T19:53:22.000Z</time></trkpt>
        <trkpt lat="29.6022405" lon="105.0381562"><ele>264.09</ele><time>2026-06-19T19:53:50.000Z</time></trkpt>
        <trkpt lat="29.6021451" lon="105.0381688"><ele>264.81</ele><time>2026-06-19T19:54:08.000Z</time></trkpt>
        <trkpt lat="29.6020455" lon="105.0381459"><ele>265.46</ele><time>2026-06-19T19:54:22.000Z</time></trkpt>
        <trkpt lat="29.6019503" lon="105.0381205"><ele>265.95</ele><time>2026-06-19T19:54:34.000Z</time></trkpt>
        <trkpt lat="29.6018527" lon="105.0380921"><ele>266.63</ele><time>2026-06-19T19:54:48.000Z</time></trkpt>
        <trkpt lat="29.6017553" lon="105.0380677"><ele>268.11</ele><time>2026-06-19T19:55:00.000Z</time></trkpt>
        <trkpt lat="29.6016579" lon="105.038047"><ele>269.36</ele><time>2026-06-19T19:55:14.000Z</time></trkpt>
        <trkpt lat="29.6016135" lon="105.0380281"><ele>270.17</ele><time>2026-06-19T19:55:24.000Z</time></trkpt>
        <trkpt lat="29.6015406" lon="105.0380453"><ele>270.9</ele><time>2026-06-19T19:55:56.000Z</time></trkpt>
        <trkpt lat="29.6014468" lon="105.0380502"><ele>271.87</ele><time>2026-06-19T19:56:18.000Z</time></trkpt>
        <trkpt lat="29.601352" lon="105.0380491"><ele>272.36</ele><time>2026-06-19T19:56:28.000Z</time></trkpt>
        <trkpt lat="29.6012422" lon="105.0380335"><ele>272.7</ele><time>2026-06-19T19:58:24.000Z</time></trkpt>
        <trkpt lat="29.6011449" lon="105.0380161"><ele>271.9</ele><time>2026-06-19T19:58:34.000Z</time></trkpt>
        <trkpt lat="29.6010399" lon="105.038021"><ele>271.91</ele><time>2026-06-19T19:59:10.000Z</time></trkpt>
        <trkpt lat="29.6009406" lon="105.0380127"><ele>271.21</ele><time>2026-06-19T19:59:22.000Z</time></trkpt>
        <trkpt lat="29.6008441" lon="105.0379983"><ele>270.29</ele><time>2026-06-19T19:59:58.000Z</time></trkpt>
        <trkpt lat="29.600751" lon="105.0380142"><ele>270.09</ele><time>2026-06-19T20:00:34.000Z</time></trkpt>
        <trkpt lat="29.6006628" lon="105.0380443"><ele>269.58</ele><time>2026-06-19T20:00:48.000Z</time></trkpt>
        <trkpt lat="29.6006628" lon="105.0380443"><ele>269.58</ele><time>2026-06-19T20:01:49.000Z</time></trkpt>
      </trkseg>
  </trk>
</gpx>